createdAt,value
2017-11-25T00:00:31.154Z,1001.90
2017-11-25T00:01:31.129Z,1001.82
2017-11-25T00:02:31.079Z,1001.79
2017-11-25T00:03:31.039Z,1001.80
2017-11-25T00:04:31.003Z,1001.81
2017-11-25T00:05:30.962Z,1001.75
2017-11-25T00:06:30.922Z,1001.66
2017-11-25T00:07:30.887Z,1001.76
2017-11-25T00:08:30.845Z,1001.67
2017-11-25T00:09:30.812Z,1001.72
2017-11-25T00:10:30.777Z,1001.69
2017-11-25T00:11:30.733Z,1001.63
2017-11-25T00:12:30.699Z,1001.66
2017-11-25T00:13:30.657Z,1001.64
2017-11-25T00:14:30.614Z,1001.62
2017-11-25T00:15:30.582Z,1001.68
2017-11-25T00:16:30.613Z,1001.67
2017-11-25T00:17:30.505Z,1001.67
2017-11-25T00:18:30.469Z,1001.62
2017-11-25T00:19:30.435Z,1001.54
2017-11-25T00:20:30.392Z,1001.52
2017-11-25T00:21:30.361Z,1001.49
2017-11-25T00:22:30.315Z,1001.53
2017-11-25T00:23:30.285Z,1001.53
2017-11-25T00:24:30.240Z,1001.52
2017-11-25T00:25:30.206Z,1001.51
2017-11-25T00:26:30.181Z,1001.47
2017-11-25T00:27:30.125Z,1001.48
2017-11-25T00:28:30.453Z,1001.39
2017-11-25T00:29:30.047Z,1001.42
2017-11-25T00:30:30.013Z,1001.44
2017-11-25T00:31:29.971Z,1001.44
2017-11-25T00:32:29.942Z,1001.42
2017-11-25T00:33:29.895Z,1001.41
2017-11-25T00:34:29.858Z,1001.47
2017-11-25T00:35:29.821Z,1001.41
2017-11-25T00:36:29.782Z,1001.47
2017-11-25T00:37:29.753Z,1001.50
2017-11-25T00:38:29.706Z,1001.51
2017-11-25T00:39:29.673Z,1001.57
2017-11-25T00:40:29.651Z,1001.60
2017-11-25T00:41:29.592Z,1001.54
2017-11-25T00:42:29.554Z,1001.68
2017-11-25T00:43:29.520Z,1001.69
2017-11-25T00:44:29.490Z,1001.63
2017-11-25T00:45:29.438Z,1001.62
2017-11-25T00:46:29.400Z,1001.57
2017-11-25T00:47:29.363Z,1001.53
2017-11-25T00:48:29.325Z,1001.59
2017-11-25T00:49:29.292Z,1001.55
2017-11-25T00:50:29.253Z,1001.54
2017-11-25T00:51:29.209Z,1001.49
2017-11-25T00:52:29.173Z,1001.48
2017-11-25T00:53:29.134Z,1001.47
2017-11-25T00:54:29.089Z,1001.45
2017-11-25T00:55:29.061Z,1001.45
2017-11-25T00:56:29.025Z,1001.49
2017-11-25T00:57:29.342Z,1001.45
2017-11-25T00:58:28.939Z,1001.45
2017-11-25T00:59:28.902Z,1001.50
2017-11-25T01:00:28.867Z,1001.38
2017-11-25T01:01:28.847Z,1001.51
2017-11-25T01:02:28.791Z,1001.44
2017-11-25T01:03:28.776Z,1001.41
2017-11-25T01:04:28.717Z,1001.43
2017-11-25T01:05:28.673Z,1001.40
2017-11-25T01:06:28.635Z,1001.43
2017-11-25T01:07:28.597Z,1001.40
2017-11-25T01:08:28.557Z,1001.46
2017-11-25T01:09:28.517Z,1001.48
2017-11-25T01:10:28.646Z,1001.51
2017-11-25T01:11:28.441Z,1001.50
2017-11-25T01:12:28.414Z,1001.53
2017-11-25T01:13:28.365Z,1001.57
2017-11-25T01:14:28.327Z,1001.55
2017-11-25T01:15:28.287Z,1001.53
2017-11-25T01:16:28.249Z,1001.55
2017-11-25T01:17:28.935Z,1001.46
2017-11-25T01:18:28.176Z,1001.51
2017-11-25T01:19:28.164Z,1001.55
2017-11-25T01:20:28.096Z,1001.53
2017-11-25T01:21:28.057Z,1001.53
2017-11-25T01:22:28.018Z,1001.53
2017-11-25T01:23:28.219Z,1001.50
2017-11-25T01:24:27.946Z,1001.44
2017-11-25T01:25:27.922Z,1001.50
2017-11-25T01:26:27.861Z,1001.47
2017-11-25T01:27:27.833Z,1001.45
2017-11-25T01:28:27.787Z,1001.46
2017-11-25T01:29:27.747Z,1001.45
2017-11-25T01:30:27.710Z,1001.39
2017-11-25T01:31:27.685Z,1001.41
2017-11-25T01:32:27.629Z,1001.43
2017-11-25T01:33:27.593Z,1001.44
2017-11-25T01:34:27.559Z,1001.42
2017-11-25T01:35:27.518Z,1001.47
2017-11-25T01:36:27.477Z,1001.42
2017-11-25T01:37:27.443Z,1001.44
2017-11-25T01:38:27.400Z,1001.41
2017-11-25T01:39:27.383Z,1001.43
2017-11-25T01:40:27.341Z,1001.37
2017-11-25T01:41:27.288Z,1001.37
2017-11-25T01:42:27.259Z,1001.37
2017-11-25T01:43:27.213Z,1001.41
2017-11-25T01:44:27.174Z,1001.45
2017-11-25T01:45:27.134Z,1001.43
2017-11-25T01:46:27.100Z,1001.39
2017-11-25T01:47:27.053Z,1001.35
2017-11-25T01:48:27.024Z,1001.37
2017-11-25T01:49:26.982Z,1001.29
2017-11-25T01:50:26.943Z,1001.26
2017-11-25T01:51:26.901Z,1001.26
2017-11-25T01:52:26.864Z,1001.17
2017-11-25T01:53:26.826Z,1001.14
2017-11-25T01:54:26.789Z,1001.14
2017-11-25T01:55:26.749Z,1001.13
2017-11-25T01:56:26.732Z,1001.16
2017-11-25T01:57:26.669Z,1001.14
2017-11-25T01:58:26.641Z,1001.07
2017-11-25T01:59:26.593Z,1001.16
2017-11-25T02:00:26.557Z,1001.08
2017-11-25T02:01:27.208Z,1001.10
2017-11-25T02:02:26.477Z,1001.11
2017-11-25T02:03:26.439Z,1001.06
2017-11-25T02:04:26.402Z,1001.05
2017-11-25T02:05:26.391Z,1001.01
2017-11-25T02:06:26.326Z,1001.04
2017-11-25T02:07:26.290Z,1000.95
2017-11-25T02:08:26.241Z,1001.00
2017-11-25T02:09:26.203Z,1000.92
2017-11-25T02:10:26.181Z,1001.00
2017-11-25T02:11:26.126Z,1001.05
2017-11-25T02:12:26.088Z,1001.08
2017-11-25T02:13:26.188Z,1001.11
2017-11-25T02:14:26.013Z,1001.04
2017-11-25T02:15:25.970Z,1000.96
2017-11-25T02:16:26.694Z,1000.89
2017-11-25T02:17:25.900Z,1000.85
2017-11-25T02:18:25.855Z,1000.78
2017-11-25T02:19:25.817Z,1000.77
2017-11-25T02:20:25.778Z,1000.72
2017-11-25T02:21:25.740Z,1000.81
2017-11-25T02:22:25.700Z,1000.74
2017-11-25T02:23:25.661Z,1000.69
2017-11-25T02:24:25.619Z,1000.80
2017-11-25T02:25:25.588Z,1000.84
2017-11-25T02:26:25.543Z,1000.87
2017-11-25T02:27:25.527Z,1000.79
2017-11-25T02:28:25.462Z,1000.91
2017-11-25T02:29:25.427Z,1000.75
2017-11-25T02:30:25.388Z,1000.83
2017-11-25T02:31:25.369Z,1000.81
2017-11-25T02:32:25.312Z,1000.89
2017-11-25T02:33:25.269Z,1000.90
2017-11-25T02:34:25.239Z,1000.92
2017-11-25T02:35:25.192Z,1000.92
2017-11-25T02:36:25.178Z,1000.89
2017-11-25T02:37:25.114Z,1000.92
2017-11-25T02:38:25.077Z,1000.78
2017-11-25T02:39:25.039Z,1000.85
2017-11-25T02:40:25.044Z,1000.82
2017-11-25T02:41:24.996Z,1000.89
2017-11-25T02:42:24.921Z,1000.94
2017-11-25T02:43:24.880Z,1000.88
2017-11-25T02:44:24.838Z,1000.83
2017-11-25T02:45:24.800Z,1000.87
2017-11-25T02:46:24.762Z,1000.98
2017-11-25T02:47:24.719Z,1000.91
2017-11-25T02:48:24.685Z,1000.86
2017-11-25T02:49:24.646Z,1000.87
2017-11-25T02:50:24.611Z,1000.86
2017-11-25T02:51:24.570Z,1000.88
2017-11-25T02:52:24.529Z,1000.88
2017-11-25T02:53:24.486Z,1000.92
2017-11-25T02:54:24.450Z,1000.83
2017-11-25T02:55:24.418Z,1000.81
2017-11-25T02:56:24.371Z,1000.81
2017-11-25T02:57:24.359Z,1000.89
2017-11-25T02:58:24.287Z,1000.83
2017-11-25T02:59:24.261Z,1000.82
2017-11-25T03:00:24.214Z,1000.85
2017-11-25T03:01:24.184Z,1000.85
2017-11-25T03:02:24.135Z,1000.73
2017-11-25T03:03:24.099Z,1000.76
2017-11-25T03:04:24.064Z,1000.79
2017-11-25T03:05:24.019Z,1000.76
2017-11-25T03:06:23.975Z,1000.70
2017-11-25T03:07:23.942Z,1000.73
2017-11-25T03:08:23.902Z,1000.81
2017-11-25T03:09:23.866Z,1000.79
2017-11-25T03:10:23.917Z,1000.78
2017-11-25T03:11:23.785Z,1000.75
2017-11-25T03:12:23.745Z,1000.81
2017-11-25T03:13:23.706Z,1000.82
2017-11-25T03:14:23.668Z,1000.86
2017-11-25T03:15:23.627Z,1000.85
2017-11-25T03:16:23.592Z,1000.86
2017-11-25T03:17:23.560Z,1000.85
2017-11-25T03:18:23.514Z,1000.81
2017-11-25T03:19:23.472Z,1000.81
2017-11-25T03:20:23.433Z,1000.75
2017-11-25T03:21:23.390Z,1000.77
2017-11-25T03:22:23.367Z,1000.68
2017-11-25T03:23:23.314Z,1000.72
2017-11-25T03:24:23.276Z,1000.67
2017-11-25T03:25:23.234Z,1000.71
2017-11-25T03:26:23.201Z,1000.65
2017-11-25T03:27:23.169Z,1000.65
2017-11-25T03:28:23.128Z,1000.74
2017-11-25T03:29:23.080Z,1000.78
2017-11-25T03:30:23.037Z,1000.72
2017-11-25T03:31:23.001Z,1000.75
2017-11-25T03:32:22.972Z,1000.75
2017-11-25T03:33:22.935Z,1000.58
2017-11-25T03:34:22.885Z,1000.70
2017-11-25T03:35:22.865Z,1000.75
2017-11-25T03:36:22.813Z,1000.67
2017-11-25T03:37:22.765Z,1000.68
2017-11-25T03:38:22.733Z,1000.73
2017-11-25T03:39:22.682Z,1000.72
2017-11-25T03:40:22.646Z,1000.72
2017-11-25T03:41:22.611Z,1000.76
2017-11-25T03:42:22.572Z,1000.74
2017-11-25T03:43:22.526Z,1000.72
2017-11-25T03:44:22.497Z,1000.75
2017-11-25T03:45:22.468Z,1000.74
2017-11-25T03:46:22.403Z,1000.74
2017-11-25T03:47:22.370Z,1000.76
2017-11-25T03:48:22.331Z,1000.74
2017-11-25T03:49:22.290Z,1000.75
2017-11-25T03:50:22.246Z,1000.79
2017-11-25T03:51:22.212Z,1000.82
2017-11-25T03:52:22.184Z,1000.83
2017-11-25T03:53:22.140Z,1000.66
2017-11-25T03:54:22.090Z,1000.77
2017-11-25T03:55:22.052Z,1000.77
2017-11-25T03:56:22.028Z,1000.77
2017-11-25T03:57:21.974Z,1000.57
2017-11-25T03:58:21.954Z,1000.49
2017-11-25T03:59:21.905Z,1000.58
2017-11-25T04:00:21.866Z,1000.54
2017-11-25T04:01:21.818Z,1000.60
2017-11-25T04:02:21.778Z,1000.60
2017-11-25T04:03:21.743Z,1000.65
2017-11-25T04:04:21.698Z,1000.59
2017-11-25T04:05:21.656Z,1000.59
2017-11-25T04:06:21.620Z,1000.65
2017-11-25T04:07:21.673Z,1000.65
2017-11-25T04:08:21.542Z,1000.63
2017-11-25T04:09:21.507Z,1000.61
2017-11-25T04:10:21.464Z,1000.64
2017-11-25T04:11:21.426Z,1000.62
2017-11-25T04:12:21.382Z,1000.61
2017-11-25T04:13:21.346Z,1000.69
2017-11-25T04:14:21.303Z,1000.65
2017-11-25T04:15:21.261Z,1000.65
2017-11-25T04:16:21.225Z,1000.64
2017-11-25T04:17:21.189Z,1000.71
2017-11-25T04:18:21.144Z,1000.71
2017-11-25T04:19:21.127Z,1000.70
2017-11-25T04:20:21.085Z,1000.66
2017-11-25T04:21:21.028Z,1000.74
2017-11-25T04:22:21.001Z,1000.65
2017-11-25T04:23:20.985Z,1000.60
2017-11-25T04:24:20.921Z,1000.64
2017-11-25T04:25:20.877Z,1000.57
2017-11-25T04:26:20.841Z,1000.60
2017-11-25T04:27:20.791Z,1000.44
2017-11-25T04:28:20.757Z,1000.49
2017-11-25T04:29:20.716Z,1000.42
2017-11-25T04:30:20.671Z,1000.42
2017-11-25T04:31:20.636Z,1000.43
2017-11-25T04:32:20.598Z,1000.44
2017-11-25T04:33:20.569Z,1000.45
2017-11-25T04:34:20.518Z,1000.36
2017-11-25T04:35:20.480Z,1000.33
2017-11-25T04:36:20.439Z,1000.28
2017-11-25T04:37:20.404Z,1000.20
2017-11-25T04:38:20.359Z,1000.23
2017-11-25T04:39:20.324Z,1000.18
2017-11-25T04:40:20.286Z,1000.17
2017-11-25T04:41:20.261Z,1000.17
2017-11-25T04:42:20.203Z,1000.20
2017-11-25T04:43:20.164Z,1000.22
2017-11-25T04:44:20.125Z,1000.25
2017-11-25T04:45:20.095Z,1000.33
2017-11-25T04:46:20.044Z,1000.32
2017-11-25T04:47:20.003Z,1000.28
2017-11-25T04:48:19.967Z,1000.32
2017-11-25T04:49:19.932Z,1000.32
2017-11-25T04:50:19.895Z,1000.21
2017-11-25T04:51:19.847Z,1000.29
2017-11-25T04:52:19.807Z,1000.33
2017-11-25T04:53:19.770Z,1000.34
2017-11-25T04:54:19.738Z,1000.37
2017-11-25T04:55:19.699Z,1000.36
2017-11-25T04:56:19.655Z,1000.29
2017-11-25T04:57:19.608Z,1000.34
2017-11-25T04:58:19.574Z,1000.34
2017-11-25T04:59:19.533Z,1000.35
2017-11-25T05:00:19.513Z,1000.42
2017-11-25T05:01:19.453Z,1000.44
2017-11-25T05:02:19.415Z,1000.44
2017-11-25T05:03:19.405Z,1000.40
2017-11-25T05:04:19.342Z,1000.32
2017-11-25T05:05:19.321Z,1000.36
2017-11-25T05:06:19.257Z,1000.30
2017-11-25T05:07:19.221Z,1000.30
2017-11-25T05:08:19.182Z,1000.32
2017-11-25T05:09:19.148Z,1000.40
2017-11-25T05:10:19.111Z,1000.34
2017-11-25T05:11:19.061Z,1000.40
2017-11-25T05:12:19.021Z,1000.47
2017-11-25T05:13:18.985Z,1000.53
2017-11-25T05:14:18.954Z,1000.52
2017-11-25T05:15:18.905Z,1000.61
2017-11-25T05:16:18.873Z,1000.59
2017-11-25T05:17:18.828Z,1000.61
2017-11-25T05:18:18.787Z,1000.64
2017-11-25T05:19:18.745Z,1000.64
2017-11-25T05:20:18.708Z,1000.65
2017-11-25T05:21:18.666Z,1000.60
2017-11-25T05:22:18.628Z,1000.58
2017-11-25T05:23:18.587Z,1000.51
2017-11-25T05:24:18.552Z,1000.55
2017-11-25T05:25:18.533Z,1000.55
2017-11-25T05:26:18.471Z,1000.58
2017-11-25T05:27:18.432Z,1000.54
2017-11-25T05:28:18.397Z,1000.66
2017-11-25T05:29:18.355Z,1000.67
2017-11-25T05:30:18.314Z,1000.68
2017-11-25T05:31:18.276Z,1000.65
2017-11-25T05:32:18.256Z,1000.63
2017-11-25T05:33:18.205Z,1000.61
2017-11-25T05:34:18.159Z,1000.59
2017-11-25T05:35:18.124Z,1000.61
2017-11-25T05:36:18.082Z,1000.61
2017-11-25T05:37:18.058Z,1000.58
2017-11-25T05:38:18.002Z,1000.61
2017-11-25T05:39:18.005Z,1000.60
2017-11-25T05:40:17.921Z,1000.61
2017-11-25T05:41:17.886Z,1000.61
2017-11-25T05:42:17.846Z,1000.61
2017-11-25T05:43:17.807Z,1000.60
2017-11-25T05:44:17.769Z,1000.58
2017-11-25T05:45:17.724Z,1000.55
2017-11-25T05:46:18.702Z,1000.58
2017-11-25T05:47:17.656Z,1000.58
2017-11-25T05:48:17.611Z,1000.68
2017-11-25T05:49:17.568Z,1000.72
2017-11-25T05:50:17.532Z,1000.69
2017-11-25T05:51:17.494Z,1000.74
2017-11-25T05:52:17.455Z,1000.65
2017-11-25T05:53:17.429Z,1000.72
2017-11-25T05:54:17.375Z,1000.72
2017-11-25T05:55:17.334Z,1000.75
2017-11-25T05:56:17.307Z,1000.74
2017-11-25T05:57:17.255Z,1000.81
2017-11-25T05:58:17.229Z,1000.83
2017-11-25T05:59:17.181Z,1000.85
2017-11-25T06:00:17.146Z,1000.83
2017-11-25T06:01:17.098Z,1000.78
2017-11-25T06:02:17.064Z,1000.74
2017-11-25T06:03:17.035Z,1000.82
2017-11-25T06:04:16.987Z,1000.80
2017-11-25T06:05:17.584Z,1000.83
2017-11-25T06:06:16.920Z,1000.79
2017-11-25T06:07:16.878Z,1000.84
2017-11-25T06:08:16.830Z,1000.83
2017-11-25T06:09:16.789Z,1000.82
2017-11-25T06:10:16.751Z,1000.86
2017-11-25T06:11:16.709Z,1000.80
2017-11-25T06:12:16.698Z,1000.84
2017-11-25T06:13:16.629Z,1000.80
2017-11-25T06:14:16.593Z,1000.81
2017-11-25T06:15:16.554Z,1000.83
2017-11-25T06:16:16.521Z,1000.73
2017-11-25T06:17:16.481Z,1000.70
2017-11-25T06:18:16.440Z,1000.77
2017-11-25T06:19:16.400Z,1000.73
2017-11-25T06:20:16.363Z,1000.70
2017-11-25T06:21:16.321Z,1000.69
2017-11-25T06:22:16.285Z,1000.74
2017-11-25T06:23:16.247Z,1000.67
2017-11-25T06:24:16.202Z,1000.74
2017-11-25T06:25:16.165Z,1000.76
2017-11-25T06:26:16.128Z,1000.90
2017-11-25T06:27:16.086Z,1000.94
2017-11-25T06:28:16.070Z,1000.96
2017-11-25T06:29:16.051Z,1000.92
2017-11-25T06:30:15.968Z,1000.96
2017-11-25T06:31:15.931Z,1001.00
2017-11-25T06:32:15.890Z,1001.02
2017-11-25T06:33:15.848Z,1001.06
2017-11-25T06:34:15.813Z,1001.03
2017-11-25T06:35:15.786Z,1001.11
2017-11-25T06:36:15.738Z,1001.12
2017-11-25T06:37:15.694Z,1001.15
2017-11-25T06:38:15.653Z,1001.20
2017-11-25T06:39:15.616Z,1001.22
2017-11-25T06:40:15.576Z,1001.22
2017-11-25T06:41:15.536Z,1001.28
2017-11-25T06:42:15.501Z,1001.19
2017-11-25T06:43:15.467Z,1001.20
2017-11-25T06:44:15.426Z,1001.25
2017-11-25T06:45:15.382Z,1001.27
2017-11-25T06:46:15.343Z,1001.27
2017-11-25T06:47:15.306Z,1001.22
2017-11-25T06:48:15.267Z,1001.32
2017-11-25T06:49:15.226Z,1001.30
2017-11-25T06:50:15.193Z,1001.34
2017-11-25T06:51:15.150Z,1001.36
2017-11-25T06:52:15.110Z,1001.31
2017-11-25T06:53:15.069Z,1001.28
2017-11-25T06:54:15.031Z,1001.31
2017-11-25T06:55:14.993Z,1001.37
2017-11-25T06:56:14.949Z,1001.38
2017-11-25T06:57:14.912Z,1001.33
2017-11-25T06:58:14.874Z,1001.29
2017-11-25T06:59:14.835Z,1001.43
2017-11-25T07:00:14.798Z,1001.45
2017-11-25T07:01:14.756Z,1001.46
2017-11-25T07:02:14.718Z,1001.55
2017-11-25T07:03:14.690Z,1001.48
2017-11-25T07:04:14.641Z,1001.59
2017-11-25T07:05:15.251Z,1001.53
2017-11-25T07:06:14.562Z,1001.54
2017-11-25T07:07:14.523Z,1001.55
2017-11-25T07:08:14.497Z,1001.63
2017-11-25T07:09:14.443Z,1001.52
2017-11-25T07:10:14.410Z,1001.61
2017-11-25T07:11:14.366Z,1001.53
2017-11-25T07:12:14.326Z,1001.60
2017-11-25T07:13:14.306Z,1001.58
2017-11-25T07:14:14.248Z,1001.59
2017-11-25T07:15:14.207Z,1001.56
2017-11-25T07:16:14.187Z,1001.61
2017-11-25T07:17:14.130Z,1001.66
2017-11-25T07:18:14.094Z,1001.65
2017-11-25T07:19:14.414Z,1001.68
2017-11-25T07:20:14.011Z,1001.65
2017-11-25T07:21:13.973Z,1001.68
2017-11-25T07:22:13.935Z,1001.69
2017-11-25T07:23:13.906Z,1001.74
2017-11-25T07:24:13.853Z,1001.73
2017-11-25T07:25:13.817Z,1001.72
2017-11-25T07:26:13.776Z,1001.73
2017-11-25T07:27:13.736Z,1001.80
2017-11-25T07:28:13.696Z,1001.77
2017-11-25T07:29:13.666Z,1001.69
2017-11-25T07:30:13.620Z,1001.81
2017-11-25T07:31:13.580Z,1001.81
2017-11-25T07:32:13.546Z,1001.82
2017-11-25T07:33:13.508Z,1001.79
2017-11-25T07:34:13.464Z,1001.86
2017-11-25T07:35:13.430Z,1001.88
2017-11-25T07:36:13.385Z,1001.87
2017-11-25T07:37:13.343Z,1001.81
2017-11-25T07:38:13.305Z,1001.90
2017-11-25T07:39:13.268Z,1001.90
2017-11-25T07:40:13.226Z,1001.93
2017-11-25T07:41:13.193Z,1001.95
2017-11-25T07:42:13.148Z,1001.93
2017-11-25T07:43:13.111Z,1001.97
2017-11-25T07:44:13.073Z,1001.97
2017-11-25T07:45:13.030Z,1002.00
2017-11-25T07:46:12.994Z,1002.02
2017-11-25T07:47:12.956Z,1002.07
2017-11-25T07:48:12.911Z,1002.00
2017-11-25T07:49:12.872Z,1002.07
2017-11-25T07:50:12.833Z,1002.05
2017-11-25T07:51:12.794Z,1002.11
2017-11-25T07:52:12.755Z,1002.08
2017-11-25T07:53:12.717Z,1002.17
2017-11-25T07:54:12.677Z,1002.15
2017-11-25T07:55:12.636Z,1002.16
2017-11-25T07:56:12.600Z,1002.19
2017-11-25T07:57:12.714Z,1002.20
2017-11-25T07:58:12.519Z,1002.21
2017-11-25T07:59:12.496Z,1002.18
2017-11-25T08:00:12.719Z,1002.25
2017-11-25T08:01:12.401Z,1002.16
2017-11-25T08:02:12.362Z,1002.20
2017-11-25T08:03:12.322Z,1002.21
2017-11-25T08:04:12.287Z,1002.18
2017-11-25T08:05:12.248Z,1002.20
2017-11-25T08:06:12.207Z,1002.23
2017-11-25T08:07:12.170Z,1002.18
2017-11-25T08:08:12.126Z,1002.24
2017-11-25T08:09:12.087Z,1002.22
2017-11-25T08:10:12.048Z,1002.20
2017-11-25T08:11:12.011Z,1002.24
2017-11-25T08:12:11.970Z,1002.20
2017-11-25T08:13:11.928Z,1002.29
2017-11-25T08:14:11.890Z,1002.27
2017-11-25T08:15:12.327Z,1002.33
2017-11-25T08:16:11.813Z,1002.33
2017-11-25T08:17:11.777Z,1002.39
2017-11-25T08:18:11.735Z,1002.37
2017-11-25T08:19:11.705Z,1002.38
2017-11-25T08:20:11.660Z,1002.36
2017-11-25T08:21:11.616Z,1002.40
2017-11-25T08:22:11.578Z,1002.40
2017-11-25T08:23:11.551Z,1002.43
2017-11-25T08:24:11.500Z,1002.42
2017-11-25T08:25:11.460Z,1002.48
2017-11-25T08:26:11.422Z,1002.51
2017-11-25T08:27:11.387Z,1002.47
2017-11-25T08:28:11.344Z,1002.58
2017-11-25T08:29:11.307Z,1002.55
2017-11-25T08:30:11.275Z,1002.60
2017-11-25T08:31:11.235Z,1002.57
2017-11-25T08:32:11.188Z,1002.63
2017-11-25T08:33:11.148Z,1002.65
2017-11-25T08:34:11.113Z,1002.65
2017-11-25T08:35:11.079Z,1002.63
2017-11-25T08:36:11.031Z,1002.66
2017-11-25T08:37:10.989Z,1002.66
2017-11-25T08:38:10.973Z,1002.61
2017-11-25T08:39:10.920Z,1002.65
2017-11-25T08:40:10.877Z,1002.65
2017-11-25T08:41:10.845Z,1002.67
2017-11-25T08:42:10.799Z,1002.62
2017-11-25T08:43:10.760Z,1002.67
2017-11-25T08:44:10.725Z,1002.68
2017-11-25T08:45:10.681Z,1002.70
2017-11-25T08:46:10.645Z,1002.68
2017-11-25T08:47:10.612Z,1002.68
2017-11-25T08:48:10.568Z,1002.68
2017-11-25T08:49:10.526Z,1002.66
2017-11-25T08:50:10.488Z,1002.68
2017-11-25T08:51:10.450Z,1002.71
2017-11-25T08:52:10.412Z,1002.69
2017-11-25T08:53:10.379Z,1002.71
2017-11-25T08:54:10.334Z,1002.75
2017-11-25T08:55:10.302Z,1002.76
2017-11-25T08:56:10.257Z,1002.80
2017-11-25T08:57:10.217Z,1002.72
2017-11-25T08:58:10.182Z,1002.70
2017-11-25T08:59:10.140Z,1002.77
2017-11-25T09:00:10.098Z,1002.72
2017-11-25T09:01:10.058Z,1002.76
2017-11-25T09:02:10.021Z,1002.76
2017-11-25T09:03:09.982Z,1002.69
2017-11-25T09:04:09.948Z,1002.74
2017-11-25T09:05:09.904Z,1002.75
2017-11-25T09:06:09.864Z,1002.72
2017-11-25T09:07:09.826Z,1002.74
2017-11-25T09:08:09.788Z,1002.74
2017-11-25T09:09:09.747Z,1002.75
2017-11-25T09:10:09.710Z,1002.78
2017-11-25T09:11:09.676Z,1002.71
2017-11-25T09:12:09.629Z,1002.72
2017-11-25T09:13:09.592Z,1002.70
2017-11-25T09:14:09.553Z,1002.68
2017-11-25T09:15:09.511Z,1002.70
2017-11-25T09:16:09.473Z,1002.74
2017-11-25T09:17:09.439Z,1002.77
2017-11-25T09:18:09.395Z,1002.74
2017-11-25T09:19:09.354Z,1002.77
2017-11-25T09:20:09.320Z,1002.85
2017-11-25T09:21:09.280Z,1002.80
2017-11-25T09:22:09.242Z,1002.80
2017-11-25T09:23:09.203Z,1002.85
2017-11-25T09:24:09.163Z,1002.82
2017-11-25T09:25:09.119Z,1002.81
2017-11-25T09:26:09.084Z,1002.85
2017-11-25T09:27:09.044Z,1002.90
2017-11-25T09:28:09.007Z,1002.93
2017-11-25T09:29:08.988Z,1002.95
2017-11-25T09:30:08.927Z,1002.92
2017-11-25T09:31:08.894Z,1002.98
2017-11-25T09:32:08.849Z,1003.00
2017-11-25T09:33:08.808Z,1002.93
2017-11-25T09:34:08.769Z,1002.99
2017-11-25T09:35:09.024Z,1002.98
2017-11-25T09:36:08.689Z,1002.96
2017-11-25T09:37:08.651Z,1002.98
2017-11-25T09:38:08.614Z,1003.01
2017-11-25T09:39:08.576Z,1003.04
2017-11-25T09:40:08.537Z,1003.01
2017-11-25T09:41:08.505Z,1003.11
2017-11-25T09:42:08.480Z,1003.08
2017-11-25T09:43:08.419Z,1003.12
2017-11-25T09:44:08.381Z,1003.10
2017-11-25T09:45:08.340Z,1003.10
2017-11-25T09:46:08.302Z,1003.14
2017-11-25T09:47:08.260Z,1003.09
2017-11-25T09:48:08.225Z,1003.13
2017-11-25T09:49:08.185Z,1003.18
2017-11-25T09:50:08.151Z,1003.09
2017-11-25T09:51:08.107Z,1003.16
2017-11-25T09:52:08.071Z,1003.18
2017-11-25T09:53:08.027Z,1003.20
2017-11-25T09:54:08.002Z,1003.23
2017-11-25T09:55:07.954Z,1003.20
2017-11-25T09:56:07.922Z,1003.20
2017-11-25T09:57:07.874Z,1003.24
2017-11-25T09:58:07.836Z,1003.25
2017-11-25T09:59:07.798Z,1003.32
2017-11-25T10:00:07.776Z,1003.28
2017-11-25T10:01:07.719Z,1003.32
2017-11-25T10:02:07.681Z,1003.19
2017-11-25T10:03:07.671Z,1003.24
2017-11-25T10:04:07.601Z,1003.28
2017-11-25T10:05:07.566Z,1003.24
2017-11-25T10:06:07.536Z,1003.21
2017-11-25T10:07:07.490Z,1003.25
2017-11-25T10:08:07.452Z,1003.30
2017-11-25T10:09:07.408Z,1003.19
2017-11-25T10:10:07.375Z,1003.36
2017-11-25T10:11:07.338Z,1003.32
2017-11-25T10:12:07.321Z,1003.32
2017-11-25T10:13:07.261Z,1003.31
2017-11-25T10:14:07.224Z,1003.26
2017-11-25T10:15:07.191Z,1003.33
2017-11-25T10:16:07.161Z,1003.37
2017-11-25T10:17:07.111Z,1003.33
2017-11-25T10:18:07.081Z,1003.34
2017-11-25T10:19:07.035Z,1003.22
2017-11-25T10:20:06.997Z,1003.28
2017-11-25T10:21:06.956Z,1003.25
2017-11-25T10:22:06.921Z,1003.21
2017-11-25T10:23:06.884Z,1003.27
2017-11-25T10:24:06.849Z,1003.31
2017-11-25T10:25:06.816Z,1003.29
2017-11-25T10:26:06.769Z,1003.30
2017-11-25T10:27:06.729Z,1003.33
2017-11-25T10:28:06.696Z,1003.33
2017-11-25T10:29:06.657Z,1003.32
2017-11-25T10:30:06.623Z,1003.29
2017-11-25T10:31:06.578Z,1003.29
2017-11-25T10:32:06.548Z,1003.32
2017-11-25T10:33:06.508Z,1003.34
2017-11-25T10:34:06.466Z,1003.33
2017-11-25T10:35:06.429Z,1003.35
2017-11-25T10:36:06.394Z,1003.38
2017-11-25T10:37:06.354Z,1003.31
2017-11-25T10:38:06.313Z,1003.29
2017-11-25T10:39:06.274Z,1003.33
2017-11-25T10:40:06.238Z,1003.36
2017-11-25T10:41:06.197Z,1003.25
2017-11-25T10:42:06.162Z,1003.32
2017-11-25T10:43:06.129Z,1003.31
2017-11-25T10:44:06.086Z,1003.32
2017-11-25T10:45:06.044Z,1003.35
2017-11-25T10:46:06.008Z,1003.33
2017-11-25T10:47:05.970Z,1003.37
2017-11-25T10:48:05.933Z,1003.30
2017-11-25T10:49:05.896Z,1003.42
2017-11-25T10:50:05.863Z,1003.41
2017-11-25T10:51:05.819Z,1003.38
2017-11-25T10:52:05.784Z,1003.32
2017-11-25T10:53:05.744Z,1003.41
2017-11-25T10:54:05.703Z,1003.47
2017-11-25T10:55:05.666Z,1003.43
2017-11-25T10:56:05.653Z,1003.45
2017-11-25T10:57:05.591Z,1003.46
2017-11-25T10:58:05.550Z,1003.43
2017-11-25T10:59:05.510Z,1003.42
2017-11-25T11:00:05.476Z,1003.42
2017-11-25T11:01:05.437Z,1003.54
2017-11-25T11:02:05.399Z,1003.57
2017-11-25T11:03:05.364Z,1003.55
2017-11-25T11:04:05.338Z,1003.56
2017-11-25T11:05:05.309Z,1003.53
2017-11-25T11:06:05.246Z,1003.56
2017-11-25T11:07:05.207Z,1003.58
2017-11-25T11:08:05.170Z,1003.49
2017-11-25T11:09:05.131Z,1003.47
2017-11-25T11:10:05.089Z,1003.57
2017-11-25T11:11:05.066Z,1003.52
2017-11-25T11:12:05.019Z,1003.54
2017-11-25T11:13:04.984Z,1003.62
2017-11-25T11:14:04.941Z,1003.59
2017-11-25T11:15:04.902Z,1003.64
2017-11-25T11:16:04.862Z,1003.58
2017-11-25T11:17:04.825Z,1003.63
2017-11-25T11:18:04.784Z,1003.60
2017-11-25T11:19:04.752Z,1003.61
2017-11-25T11:20:04.710Z,1003.62
2017-11-25T11:21:04.675Z,1003.65
2017-11-25T11:22:04.639Z,1003.63
2017-11-25T11:23:04.599Z,1003.62
2017-11-25T11:24:04.559Z,1003.70
2017-11-25T11:25:04.519Z,1003.63
2017-11-25T11:26:04.493Z,1003.62
2017-11-25T11:27:04.444Z,1003.69
2017-11-25T11:28:04.406Z,1003.69
2017-11-25T11:29:04.368Z,1003.75
2017-11-25T11:30:04.332Z,1003.73
2017-11-25T11:31:04.294Z,1003.75
2017-11-25T11:32:04.280Z,1003.74
2017-11-25T11:33:04.210Z,1003.72
2017-11-25T11:34:04.176Z,1003.68
2017-11-25T11:35:04.140Z,1003.77
2017-11-25T11:36:04.100Z,1003.73
2017-11-25T11:37:04.063Z,1003.71
2017-11-25T11:38:04.087Z,1003.64
2017-11-25T11:39:03.996Z,1003.70
2017-11-25T11:40:03.954Z,1003.77
2017-11-25T11:41:03.911Z,1003.83
2017-11-25T11:42:03.877Z,1003.81
2017-11-25T11:43:03.836Z,1003.84
2017-11-25T11:44:03.799Z,1003.76
2017-11-25T11:45:03.772Z,1003.82
2017-11-25T11:46:03.719Z,1003.80
2017-11-25T11:47:03.689Z,1003.86
2017-11-25T11:48:03.648Z,1003.85
2017-11-25T11:49:03.613Z,1003.86
2017-11-25T11:50:03.572Z,1003.87
2017-11-25T11:51:03.537Z,1003.87
2017-11-25T11:52:03.498Z,1003.90
2017-11-25T11:53:03.458Z,1003.80
2017-11-25T11:54:03.424Z,1003.88
2017-11-25T11:55:03.390Z,1003.86
2017-11-25T11:56:03.352Z,1003.83
2017-11-25T11:57:03.311Z,1003.89
2017-11-25T11:58:03.285Z,1003.90
2017-11-25T11:59:03.236Z,1003.90
2017-11-25T12:00:03.201Z,1003.91
2017-11-25T12:01:03.164Z,1003.96
2017-11-25T12:02:03.126Z,1003.98
2017-11-25T12:03:03.089Z,1003.92
2017-11-25T12:04:03.054Z,1003.92
2017-11-25T12:05:03.014Z,1004.00